sensor_id;sensor_type;location;lat;lon;timestamp;pressure;altitude;pressure_sealevel;temperature;humidity
49627;BME280;35527;54.616;39.786;2023-04-29T00:03:01;99279.69;;;12.74;100.00
49627;BME280;35527;54.616;39.786;2023-04-29T00:06:03;99283.13;;;12.75;100.00
49627;BME280;35527;54.616;39.786;2023-04-29T00:09:09;99244.69;;;12.66;100.00
49627;BME280;35527;54.616;39.786;2023-04-29T00:12:16;99269.25;;;12.90;100.00
49627;BME280;35527;54.616;39.786;2023-04-29T00:15:19;99257.28;;;12.88;100.00
49627;BME280;35527;54.616;39.786;2023-04-29T00:18:27;99256.88;;;13.10;100.00
49627;BME280;35527;54.616;39.786;2023-04-29T00:21:29;99277.03;;;13.20;100.00
49627;BME280;35527;54.616;39.786;2023-04-29T00:24:35;99279.34;;;13.11;100.00
49627;BME280;35527;54.616;39.786;2023-04-29T00:27:39;99259.09;;;13.32;100.00
49627;BME280;35527;54.616;39.786;2023-04-29T00:30:43;99270.06;;;13.51;100.00
49627;BME280;35527;54.616;39.786;2023-04-29T00:33:46;99239.97;;;13.33;100.00
49627;BME280;35527;54.616;39.786;2023-04-29T00:36:50;99260.41;;;13.53;100.00
49627;BME280;35527;54.616;39.786;2023-04-29T00:39:52;99264.13;;;13.63;100.00
49627;BME280;35527;54.616;39.786;2023-04-29T00:42:58;99264.97;;;13.64;100.00
49627;BME280;35527;54.616;39.786;2023-04-29T00:46:02;99270.47;;;13.73;100.00
49627;BME280;35527;54.616;39.786;2023-04-29T00:49:08;99261.16;;;13.69;100.00
49627;BME280;35527;54.616;39.786;2023-04-29T00:52:13;99268.69;;;13.60;100.00
49627;BME280;35527;54.616;39.786;2023-04-29T00:55:22;99269.97;;;13.52;100.00
49627;BME280;35527;54.616;39.786;2023-04-29T00:58:28;99246.00;;;13.33;100.00
49627;BME280;35527;54.616;39.786;2023-04-29T01:01:39;99254.78;;;13.16;100.00
49627;BME280;35527;54.616;39.786;2023-04-29T01:04:42;99268.16;;;12.94;100.00
49627;BME280;35527;54.616;39.786;2023-04-29T01:11:15;99268.28;;;12.77;100.00
49627;BME280;35527;54.616;39.786;2023-04-29T01:14:22;99251.59;;;12.51;100.00
49627;BME280;35527;54.616;39.786;2023-04-29T01:17:30;99258.16;;;12.42;100.00
49627;BME280;35527;54.616;39.786;2023-04-29T01:20:40;99278.56;;;12.32;100.00
49627;BME280;35527;54.616;39.786;2023-04-29T01:23:44;99268.50;;;12.26;100.00
49627;BME280;35527;54.616;39.786;2023-04-29T01:27:30;99283.84;;;12.31;100.00
49627;BME280;35527;54.616;39.786;2023-04-29T01:31:14;99276.22;;;12.12;100.00
49627;BME280;35527;54.616;39.786;2023-04-29T01:34:32;99267.50;;;11.97;100.00
49627;BME280;35527;54.616;39.786;2023-04-29T01:37:48;99249.13;;;11.84;100.00
49627;BME280;35527;54.616;39.786;2023-04-29T01:41:18;99254.38;;;11.67;100.00
49627;BME280;35527;54.616;39.786;2023-04-29T01:44:37;99260.06;;;11.40;100.00
49627;BME280;35527;54.616;39.786;2023-04-29T01:47:41;99262.88;;;11.36;100.00
49627;BME280;35527;54.616;39.786;2023-04-29T01:50:44;99272.50;;;11.34;100.00
49627;BME280;35527;54.616;39.786;2023-04-29T01:53:50;99239.22;;;11.26;100.00
49627;BME280;35527;54.616;39.786;2023-04-29T01:56:54;99254.25;;;11.19;100.00
49627;BME280;35527;54.616;39.786;2023-04-29T02:00:12;99254.47;;;10.97;100.00
49627;BME280;35527;54.616;39.786;2023-04-29T02:03:21;99260.25;;;11.02;100.00
49627;BME280;35527;54.616;39.786;2023-04-29T02:06:28;99271.41;;;11.04;100.00
49627;BME280;35527;54.616;39.786;2023-04-29T02:09:38;99272.44;;;10.83;100.00
49627;BME280;35527;54.616;39.786;2023-04-29T02:12:45;99271.06;;;10.76;100.00
49627;BME280;35527;54.616;39.786;2023-04-29T02:15:50;99281.66;;;11.06;100.00
49627;BME280;35527;54.616;39.786;2023-04-29T02:18:52;99252.72;;;10.80;100.00
49627;BME280;35527;54.616;39.786;2023-04-29T02:21:56;99280.88;;;10.69;100.00
49627;BME280;35527;54.616;39.786;2023-04-29T02:25:01;99281.31;;;10.41;100.00
49627;BME280;35527;54.616;39.786;2023-04-29T02:28:03;99298.16;;;10.12;100.00
49627;BME280;35527;54.616;39.786;2023-04-29T02:31:08;99298.09;;;9.95;100.00
49627;BME280;35527;54.616;39.786;2023-04-29T02:34:19;99303.25;;;9.95;100.00
49627;BME280;35527;54.616;39.786;2023-04-29T02:37:21;99306.91;;;9.90;100.00
49627;BME280;35527;54.616;39.786;2023-04-29T02:40:26;99293.25;;;9.68;100.00
49627;BME280;35527;54.616;39.786;2023-04-29T02:43:29;99302.41;;;9.55;100.00
49627;BME280;35527;54.616;39.786;2023-04-29T02:46:38;99321.59;;;9.49;100.00
49627;BME280;35527;54.616;39.786;2023-04-29T02:49:44;99319.50;;;9.59;100.00
49627;BME280;35527;54.616;39.786;2023-04-29T02:52:48;99316.06;;;9.38;100.00
49627;BME280;35527;54.616;39.786;2023-04-29T02:55:51;99321.47;;;9.32;100.00
49627;BME280;35527;54.616;39.786;2023-04-29T02:58:54;99299.91;;;9.12;100.00
49627;BME280;35527;54.616;39.786;2023-04-29T03:01:59;99350.81;;;9.09;100.00
49627;BME280;35527;54.616;39.786;2023-04-29T03:05:04;99341.97;;;8.94;100.00
49627;BME280;35527;54.616;39.786;2023-04-29T03:08:07;99282.66;;;8.50;100.00
49627;BME280;35527;54.616;39.786;2023-04-29T03:11:12;99335.41;;;8.41;100.00
49627;BME280;35527;54.616;39.786;2023-04-29T03:14:18;99381.69;;;8.68;100.00
49627;BME280;35527;54.616;39.786;2023-04-29T03:17:25;99329.56;;;8.36;100.00
49627;BME280;35527;54.616;39.786;2023-04-29T03:20:28;99354.50;;;8.35;100.00
49627;BME280;35527;54.616;39.786;2023-04-29T03:23:31;99401.69;;;8.38;100.00
49627;BME280;35527;54.616;39.786;2023-04-29T03:26:39;99394.44;;;8.24;100.00
49627;BME280;35527;54.616;39.786;2023-04-29T03:29:45;99378.00;;;8.04;100.00
49627;BME280;35527;54.616;39.786;2023-04-29T03:32:49;99377.78;;;7.85;100.00
49627;BME280;35527;54.616;39.786;2023-04-29T03:35:52;99352.69;;;7.67;100.00
49627;BME280;35527;54.616;39.786;2023-04-29T03:39:11;99371.53;;;7.67;100.00
49627;BME280;35527;54.616;39.786;2023-04-29T03:42:14;99357.50;;;7.51;100.00
49627;BME280;35527;54.616;39.786;2023-04-29T03:45:18;99335.72;;;7.35;100.00
49627;BME280;35527;54.616;39.786;2023-04-29T03:48:21;99339.25;;;7.32;100.00
49627;BME280;35527;54.616;39.786;2023-04-29T03:51:27;99317.13;;;7.27;100.00
49627;BME280;35527;54.616;39.786;2023-04-29T03:54:39;99302.31;;;7.08;100.00
49627;BME280;35527;54.616;39.786;2023-04-29T03:57:43;99328.28;;;7.00;100.00
49627;BME280;35527;54.616;39.786;2023-04-29T04:00:47;99370.34;;;6.99;100.00
49627;BME280;35527;54.616;39.786;2023-04-29T04:03:57;99348.34;;;6.89;100.00
49627;BME280;35527;54.616;39.786;2023-04-29T04:07:02;99343.69;;;7.02;100.00
49627;BME280;35527;54.616;39.786;2023-04-29T04:10:18;99377.97;;;7.03;100.00
49627;BME280;35527;54.616;39.786;2023-04-29T04:13:22;99354.53;;;6.84;100.00
49627;BME280;35527;54.616;39.786;2023-04-29T04:16:26;99358.91;;;6.82;100.00
49627;BME280;35527;54.616;39.786;2023-04-29T04:19:32;99365.91;;;6.76;100.00
49627;BME280;35527;54.616;39.786;2023-04-29T04:22:37;99352.75;;;6.58;100.00
49627;BME280;35527;54.616;39.786;2023-04-29T04:26:12;99332.38;;;6.51;100.00
49627;BME280;35527;54.616;39.786;2023-04-29T04:29:17;99359.78;;;6.81;100.00
49627;BME280;35527;54.616;39.786;2023-04-29T04:32:29;99376.59;;;6.64;100.00
49627;BME280;35527;54.616;39.786;2023-04-29T04:35:33;99383.69;;;6.84;100.00
49627;BME280;35527;54.616;39.786;2023-04-29T04:38:38;99360.44;;;6.87;100.00
49627;BME280;35527;54.616;39.786;2023-04-29T04:41:46;99357.03;;;6.87;100.00
49627;BME280;35527;54.616;39.786;2023-04-29T04:44:49;99364.06;;;6.82;100.00
49627;BME280;35527;54.616;39.786;2023-04-29T04:48:12;99369.38;;;6.75;100.00
49627;BME280;35527;54.616;39.786;2023-04-29T04:51:17;99387.97;;;6.84;100.00
49627;BME280;35527;54.616;39.786;2023-04-29T04:54:20;99420.00;;;6.73;100.00
49627;BME280;35527;54.616;39.786;2023-04-29T04:57:34;99413.25;;;6.69;100.00
49627;BME280;35527;54.616;39.786;2023-04-29T05:00:37;99422.63;;;6.72;100.00
49627;BME280;35527;54.616;39.786;2023-04-29T05:03:46;99441.09;;;6.55;100.00
49627;BME280;35527;54.616;39.786;2023-04-29T05:06:54;99450.66;;;6.51;100.00
49627;BME280;35527;54.616;39.786;2023-04-29T05:10:01;99434.09;;;6.30;100.00
49627;BME280;35527;54.616;39.786;2023-04-29T05:13:06;99453.47;;;6.42;100.00
49627;BME280;35527;54.616;39.786;2023-04-29T05:16:12;99471.28;;;6.50;100.00
49627;BME280;35527;54.616;39.786;2023-04-29T05:19:20;99465.41;;;6.45;100.00
49627;BME280;35527;54.616;39.786;2023-04-29T05:22:26;99463.56;;;6.50;100.00
49627;BME280;35527;54.616;39.786;2023-04-29T05:25:29;99494.16;;;6.58;100.00
49627;BME280;35527;54.616;39.786;2023-04-29T05:28:34;99493.06;;;6.66;100.00
49627;BME280;35527;54.616;39.786;2023-04-29T05:31:41;99491.50;;;6.61;100.00
49627;BME280;35527;54.616;39.786;2023-04-29T05:34:46;99507.53;;;6.70;100.00
49627;BME280;35527;54.616;39.786;2023-04-29T05:37:56;99488.34;;;6.52;100.00
49627;BME280;35527;54.616;39.786;2023-04-29T05:41:19;99501.50;;;6.40;100.00
49627;BME280;35527;54.616;39.786;2023-04-29T05:44:50;99513.41;;;6.44;100.00
49627;BME280;35527;54.616;39.786;2023-04-29T05:47:53;99499.16;;;6.32;100.00
49627;BME280;35527;54.616;39.786;2023-04-29T05:50:57;99512.06;;;6.29;100.00
49627;BME280;35527;54.616;39.786;2023-04-29T05:54:01;99510.47;;;6.25;100.00
49627;BME280;35527;54.616;39.786;2023-04-29T05:57:07;99513.22;;;6.19;100.00
49627;BME280;35527;54.616;39.786;2023-04-29T06:00:14;99531.28;;;6.15;100.00
49627;BME280;35527;54.616;39.786;2023-04-29T06:03:19;99537.34;;;6.14;100.00
49627;BME280;35527;54.616;39.786;2023-04-29T06:06:32;99546.88;;;6.08;100.00
49627;BME280;35527;54.616;39.786;2023-04-29T06:10:05;99547.72;;;6.09;100.00
49627;BME280;35527;54.616;39.786;2023-04-29T06:13:10;99553.75;;;6.08;100.00
49627;BME280;35527;54.616;39.786;2023-04-29T06:16:13;99552.25;;;5.99;100.00
49627;BME280;35527;54.616;39.786;2023-04-29T06:19:20;99576.78;;;6.11;100.00
49627;BME280;35527;54.616;39.786;2023-04-29T06:22:28;99572.53;;;6.10;100.00
49627;BME280;35527;54.616;39.786;2023-04-29T06:25:37;99582.06;;;6.05;100.00
49627;BME280;35527;54.616;39.786;2023-04-29T06:28:43;99582.06;;;6.05;100.00
49627;BME280;35527;54.616;39.786;2023-04-29T06:31:47;99595.91;;;5.99;100.00
49627;BME280;35527;54.616;39.786;2023-04-29T06:34:53;99578.06;;;5.92;100.00
49627;BME280;35527;54.616;39.786;2023-04-29T06:38:03;99611.91;;;6.11;100.00
49627;BME280;35527;54.616;39.786;2023-04-29T06:41:36;99602.25;;;6.54;100.00
49627;BME280;35527;54.616;39.786;2023-04-29T06:45:00;99601.38;;;6.21;100.00
49627;BME280;35527;54.616;39.786;2023-04-29T06:48:14;99584.03;;;5.95;100.00
49627;BME280;35527;54.616;39.786;2023-04-29T06:51:21;99601.88;;;6.01;100.00
49627;BME280;35527;54.616;39.786;2023-04-29T06:54:25;99619.56;;;6.12;100.00
49627;BME280;35527;54.616;39.786;2023-04-29T06:57:31;99637.56;;;6.12;100.00
49627;BME280;35527;54.616;39.786;2023-04-29T07:00:43;99640.13;;;6.12;100.00
49627;BME280;35527;54.616;39.786;2023-04-29T07:03:47;99646.84;;;6.18;100.00
49627;BME280;35527;54.616;39.786;2023-04-29T07:06:53;99624.84;;;6.07;100.00
49627;BME280;35527;54.616;39.786;2023-04-29T07:10:01;99649.00;;;6.35;100.00
49627;BME280;35527;54.616;39.786;2023-04-29T07:13:09;99646.38;;;6.38;100.00
49627;BME280;35527;54.616;39.786;2023-04-29T07:16:17;99654.00;;;6.41;100.00
49627;BME280;35527;54.616;39.786;2023-04-29T07:19:23;99636.28;;;6.30;100.00
49627;BME280;35527;54.616;39.786;2023-04-29T07:22:31;99650.31;;;6.17;100.00
49627;BME280;35527;54.616;39.786;2023-04-29T07:25:41;99663.91;;;6.22;100.00
49627;BME280;35527;54.616;39.786;2023-04-29T07:28:47;99660.41;;;6.24;100.00
49627;BME280;35527;54.616;39.786;2023-04-29T07:31:52;99669.88;;;6.22;100.00
49627;BME280;35527;54.616;39.786;2023-04-29T07:34:58;99654.44;;;6.22;100.00
49627;BME280;35527;54.616;39.786;2023-04-29T07:38:04;99646.00;;;6.17;100.00
49627;BME280;35527;54.616;39.786;2023-04-29T07:41:08;99681.72;;;6.28;100.00
49627;BME280;35527;54.616;39.786;2023-04-29T07:44:16;99648.03;;;6.04;100.00
49627;BME280;35527;54.616;39.786;2023-04-29T07:47:19;99672.28;;;6.28;100.00
49627;BME280;35527;54.616;39.786;2023-04-29T07:50:24;99688.97;;;6.48;100.00
49627;BME280;35527;54.616;39.786;2023-04-29T07:53:29;99686.94;;;6.61;100.00
49627;BME280;35527;54.616;39.786;2023-04-29T07:56:33;99678.34;;;6.62;100.00
49627;BME280;35527;54.616;39.786;2023-04-29T07:59:38;99687.59;;;6.69;100.00
49627;BME280;35527;54.616;39.786;2023-04-29T08:02:45;99711.47;;;6.74;100.00
49627;BME280;35527;54.616;39.786;2023-04-29T08:05:50;99700.19;;;6.80;100.00
49627;BME280;35527;54.616;39.786;2023-04-29T08:08:56;99697.09;;;6.67;100.00
49627;BME280;35527;54.616;39.786;2023-04-29T08:12:05;99708.16;;;6.69;100.00
49627;BME280;35527;54.616;39.786;2023-04-29T08:15:10;99739.72;;;6.75;100.00
49627;BME280;35527;54.616;39.786;2023-04-29T08:18:14;99731.22;;;6.72;100.00
49627;BME280;35527;54.616;39.786;2023-04-29T08:21:18;99742.50;;;6.66;100.00
49627;BME280;35527;54.616;39.786;2023-04-29T08:24:23;99732.56;;;6.52;100.00
49627;BME280;35527;54.616;39.786;2023-04-29T08:27:26;99761.63;;;6.54;100.00
49627;BME280;35527;54.616;39.786;2023-04-29T08:30:30;99758.81;;;6.67;100.00
49627;BME280;35527;54.616;39.786;2023-04-29T08:33:35;99754.41;;;6.70;100.00
49627;BME280;35527;54.616;39.786;2023-04-29T08:36:42;99775.59;;;6.80;100.00
49627;BME280;35527;54.616;39.786;2023-04-29T08:39:49;99785.31;;;6.69;100.00
49627;BME280;35527;54.616;39.786;2023-04-29T08:42:56;99800.78;;;6.67;100.00
49627;BME280;35527;54.616;39.786;2023-04-29T08:46:02;99816.97;;;6.72;100.00
49627;BME280;35527;54.616;39.786;2023-04-29T08:49:10;99822.72;;;6.82;100.00
49627;BME280;35527;54.616;39.786;2023-04-29T08:52:19;99790.81;;;6.53;100.00
49627;BME280;35527;54.616;39.786;2023-04-29T08:55:23;99818.66;;;6.73;100.00
49627;BME280;35527;54.616;39.786;2023-04-29T08:58:27;99823.13;;;6.65;100.00
49627;BME280;35527;54.616;39.786;2023-04-29T09:01:39;99815.81;;;6.84;100.00
49627;BME280;35527;54.616;39.786;2023-04-29T09:07:58;99800.28;;;6.51;100.00
49627;BME280;35527;54.616;39.786;2023-04-29T09:11:08;99845.19;;;6.75;100.00
49627;BME280;35527;54.616;39.786;2023-04-29T09:14:13;99845.78;;;6.87;100.00
49627;BME280;35527;54.616;39.786;2023-04-29T09:17:46;99839.66;;;6.91;100.00
49627;BME280;35527;54.616;39.786;2023-04-29T09:20:49;99861.06;;;6.93;100.00
49627;BME280;35527;54.616;39.786;2023-04-29T09:23:56;99866.44;;;6.82;100.00
49627;BME280;35527;54.616;39.786;2023-04-29T09:27:05;99853.81;;;6.73;100.00
49627;BME280;35527;54.616;39.786;2023-04-29T09:30:09;99877.09;;;6.67;100.00
49627;BME280;35527;54.616;39.786;2023-04-29T09:33:14;99877.13;;;6.65;100.00
49627;BME280;35527;54.616;39.786;2023-04-29T09:36:47;99875.00;;;6.84;100.00
49627;BME280;35527;54.616;39.786;2023-04-29T09:39:53;99874.69;;;6.96;100.00
49627;BME280;35527;54.616;39.786;2023-04-29T09:43:02;99878.50;;;6.80;100.00
49627;BME280;35527;54.616;39.786;2023-04-29T09:46:17;99882.78;;;7.17;100.00
49627;BME280;35527;54.616;39.786;2023-04-29T09:49:23;99880.59;;;6.64;100.00
49627;BME280;35527;54.616;39.786;2023-04-29T09:52:39;99895.97;;;7.05;100.00
49627;BME280;35527;54.616;39.786;2023-04-29T09:59:07;99908.59;;;7.14;100.00
49627;BME280;35527;54.616;39.786;2023-04-29T10:02:17;99892.88;;;6.89;100.00
49627;BME280;35527;54.616;39.786;2023-04-29T10:05:27;99917.16;;;7.16;100.00
49627;BME280;35527;54.616;39.786;2023-04-29T10:08:32;99947.81;;;7.25;100.00
49627;BME280;35527;54.616;39.786;2023-04-29T10:11:39;99955.84;;;7.11;100.00
49627;BME280;35527;54.616;39.786;2023-04-29T10:15:02;99946.59;;;7.03;100.00
49627;BME280;35527;54.616;39.786;2023-04-29T10:21:26;99973.09;;;6.66;100.00
49627;BME280;35527;54.616;39.786;2023-04-29T10:24:31;99957.88;;;6.55;100.00
49627;BME280;35527;54.616;39.786;2023-04-29T10:27:41;99976.97;;;6.43;100.00
49627;BME280;35527;54.616;39.786;2023-04-29T10:30:50;99946.25;;;6.37;100.00
49627;BME280;35527;54.616;39.786;2023-04-29T10:33:55;99993.22;;;6.45;100.00
49627;BME280;35527;54.616;39.786;2023-04-29T10:37:02;99952.38;;;6.31;100.00
49627;BME280;35527;54.616;39.786;2023-04-29T10:43:52;99978.44;;;6.58;100.00
49627;BME280;35527;54.616;39.786;2023-04-29T10:47:18;99972.06;;;6.74;100.00
49627;BME280;35527;54.616;39.786;2023-04-29T10:50:23;99992.28;;;6.93;100.00
49627;BME280;35527;54.616;39.786;2023-04-29T10:53:27;99968.16;;;6.98;100.00
49627;BME280;35527;54.616;39.786;2023-04-29T10:56:51;99976.50;;;7.07;100.00
49627;BME280;35527;54.616;39.786;2023-04-29T10:59:57;99992.16;;;6.97;100.00
49627;BME280;35527;54.616;39.786;2023-04-29T11:03:05;99986.50;;;7.20;100.00
49627;BME280;35527;54.616;39.786;2023-04-29T11:06:11;100000.66;;;7.41;100.00
49627;BME280;35527;54.616;39.786;2023-04-29T11:09:30;99995.19;;;7.54;100.00
49627;BME280;35527;54.616;39.786;2023-04-29T11:12:37;100007.22;;;7.53;100.00
49627;BME280;35527;54.616;39.786;2023-04-29T11:15:43;100017.53;;;7.53;100.00
49627;BME280;35527;54.616;39.786;2023-04-29T11:19:08;100021.88;;;7.87;100.00
49627;BME280;35527;54.616;39.786;2023-04-29T11:22:27;100015.41;;;7.71;100.00
49627;BME280;35527;54.616;39.786;2023-04-29T11:25:36;100030.13;;;7.65;100.00
49627;BME280;35527;54.616;39.786;2023-04-29T11:28:42;100035.97;;;7.72;100.00
49627;BME280;35527;54.616;39.786;2023-04-29T11:31:46;100051.81;;;7.93;100.00
49627;BME280;35527;54.616;39.786;2023-04-29T11:38:50;100045.28;;;8.13;100.00
49627;BME280;35527;54.616;39.786;2023-04-29T11:42:04;100067.03;;;8.02;100.00
49627;BME280;35527;54.616;39.786;2023-04-29T11:45:07;100063.13;;;7.87;100.00
49627;BME280;35527;54.616;39.786;2023-04-29T11:48:25;100064.81;;;7.86;100.00
49627;BME280;35527;54.616;39.786;2023-04-29T11:51:30;100066.56;;;7.86;100.00
49627;BME280;35527;54.616;39.786;2023-04-29T11:54:34;100042.50;;;7.87;100.00
49627;BME280;35527;54.616;39.786;2023-04-29T11:57:37;100034.78;;;7.87;99.92
49627;BME280;35527;54.616;39.786;2023-04-29T12:00:46;100063.16;;;8.20;99.90
49627;BME280;35527;54.616;39.786;2023-04-29T12:03:50;100069.50;;;8.42;99.95
49627;BME280;35527;54.616;39.786;2023-04-29T12:07:02;100068.72;;;8.70;97.94
49627;BME280;35527;54.616;39.786;2023-04-29T12:10:10;100069.16;;;8.87;96.07
49627;BME280;35527;54.616;39.786;2023-04-29T12:13:19;100050.75;;;8.67;93.63
49627;BME280;35527;54.616;39.786;2023-04-29T12:16:22;100067.56;;;8.50;94.24
49627;BME280;35527;54.616;39.786;2023-04-29T12:19:32;100085.38;;;8.60;95.45
49627;BME280;35527;54.616;39.786;2023-04-29T12:22:35;100061.25;;;8.26;95.07
49627;BME280;35527;54.616;39.786;2023-04-29T12:25:41;100048.75;;;8.11;95.18
49627;BME280;35527;54.616;39.786;2023-04-29T12:28:53;100075.13;;;8.56;95.07
49627;BME280;35527;54.616;39.786;2023-04-29T12:31:58;100067.88;;;8.71;92.38
49627;BME280;35527;54.616;39.786;2023-04-29T12:35:01;100069.09;;;8.89;90.17
49627;BME280;35527;54.616;39.786;2023-04-29T12:38:15;100063.38;;;8.77;90.58
49627;BME280;35527;54.616;39.786;2023-04-29T12:41:17;100061.22;;;8.62;90.32
49627;BME280;35527;54.616;39.786;2023-04-29T12:44:20;100074.88;;;8.66;90.03
49627;BME280;35527;54.616;39.786;2023-04-29T12:47:31;100072.50;;;8.58;89.59
49627;BME280;35527;54.616;39.786;2023-04-29T12:50:40;100094.97;;;8.86;90.22
49627;BME280;35527;54.616;39.786;2023-04-29T12:53:44;100095.19;;;8.78;88.88
49627;BME280;35527;54.616;39.786;2023-04-29T12:56:48;100067.00;;;8.39;89.28
49627;BME280;35527;54.616;39.786;2023-04-29T12:59:52;100101.13;;;8.49;87.57
49627;BME280;35527;54.616;39.786;2023-04-29T13:02:59;100113.25;;;8.45;86.95
49627;BME280;35527;54.616;39.786;2023-04-29T13:06:04;100095.16;;;8.47;87.23
49627;BME280;35527;54.616;39.786;2023-04-29T13:09:08;100073.38;;;8.23;88.67
49627;BME280;35527;54.616;39.786;2023-04-29T13:12:20;100112.66;;;8.34;86.92
49627;BME280;35527;54.616;39.786;2023-04-29T13:15:35;100089.41;;;8.35;86.45
49627;BME280;35527;54.616;39.786;2023-04-29T13:18:41;100103.44;;;8.60;86.43
49627;BME280;35527;54.616;39.786;2023-04-29T13:21:55;100098.44;;;8.53;86.33
49627;BME280;35527;54.616;39.786;2023-04-29T13:25:00;100102.84;;;8.50;86.42
49627;BME280;35527;54.616;39.786;2023-04-29T13:28:06;100100.19;;;8.51;86.87
49627;BME280;35527;54.616;39.786;2023-04-29T13:31:10;100090.22;;;8.39;86.91
49627;BME280;35527;54.616;39.786;2023-04-29T13:34:14;100085.47;;;8.21;86.70
49627;BME280;35527;54.616;39.786;2023-04-29T13:37:20;100079.94;;;8.02;86.75
49627;BME280;35527;54.616;39.786;2023-04-29T13:40:24;100080.78;;;8.01;90.16
49627;BME280;35527;54.616;39.786;2023-04-29T13:43:29;100078.53;;;7.88;93.19
49627;BME280;35527;54.616;39.786;2023-04-29T13:46:37;100088.75;;;7.92;93.76
49627;BME280;35527;54.616;39.786;2023-04-29T13:49:40;100085.09;;;8.00;94.44
49627;BME280;35527;54.616;39.786;2023-04-29T13:53:06;100088.97;;;8.18;93.01
49627;BME280;35527;54.616;39.786;2023-04-29T13:56:13;100087.59;;;8.05;90.43
49627;BME280;35527;54.616;39.786;2023-04-29T13:59:38;100088.75;;;7.92;90.47
49627;BME280;35527;54.616;39.786;2023-04-29T14:02:49;100092.16;;;7.94;91.49
49627;BME280;35527;54.616;39.786;2023-04-29T14:05:58;100073.13;;;7.99;91.58
49627;BME280;35527;54.616;39.786;2023-04-29T14:09:02;100056.84;;;7.97;90.34
49627;BME280;35527;54.616;39.786;2023-04-29T14:12:13;100092.16;;;8.28;88.78
49627;BME280;35527;54.616;39.786;2023-04-29T14:15:16;100074.97;;;8.28;86.20
49627;BME280;35527;54.616;39.786;2023-04-29T14:18:23;100091.78;;;8.45;82.41
49627;BME280;35527;54.616;39.786;2023-04-29T14:21:27;100103.78;;;8.46;78.39
49627;BME280;35527;54.616;39.786;2023-04-29T14:24:32;100089.22;;;8.43;77.63
49627;BME280;35527;54.616;39.786;2023-04-29T14:27:35;100103.63;;;8.52;77.92
49627;BME280;35527;54.616;39.786;2023-04-29T14:30:43;100113.31;;;8.76;78.98
49627;BME280;35527;54.616;39.786;2023-04-29T14:33:51;100091.13;;;9.00;77.56
49627;BME280;35527;54.616;39.786;2023-04-29T14:36:55;100099.47;;;9.40;74.81
49627;BME280;35527;54.616;39.786;2023-04-29T14:40:00;100101.22;;;9.39;71.32
49627;BME280;35527;54.616;39.786;2023-04-29T14:43:04;100103.53;;;9.19;70.23
49627;BME280;35527;54.616;39.786;2023-04-29T14:46:09;100103.72;;;9.11;72.31
49627;BME280;35527;54.616;39.786;2023-04-29T14:49:14;100095.44;;;9.00;71.08
49627;BME280;35527;54.616;39.786;2023-04-29T14:52:17;100096.06;;;8.77;70.34
49627;BME280;35527;54.616;39.786;2023-04-29T14:55:21;100084.63;;;8.54;71.67
49627;BME280;35527;54.616;39.786;2023-04-29T14:58:25;100100.75;;;8.63;69.74
49627;BME280;35527;54.616;39.786;2023-04-29T15:01:27;100091.47;;;8.55;70.46
49627;BME280;35527;54.616;39.786;2023-04-29T15:04:40;100092.38;;;8.54;68.42
49627;BME280;35527;54.616;39.786;2023-04-29T15:07:48;100084.78;;;8.50;67.74
49627;BME280;35527;54.616;39.786;2023-04-29T15:10:56;100103.50;;;8.56;68.69
49627;BME280;35527;54.616;39.786;2023-04-29T15:13:59;100115.56;;;8.56;70.16
49627;BME280;35527;54.616;39.786;2023-04-29T15:17:03;100081.69;;;8.34;70.32
49627;BME280;35527;54.616;39.786;2023-04-29T15:20:07;100111.59;;;8.43;70.56
49627;BME280;35527;54.616;39.786;2023-04-29T15:23:12;100137.22;;;8.50;72.05
49627;BME280;35527;54.616;39.786;2023-04-29T15:26:15;100130.41;;;8.46;73.99
49627;BME280;35527;54.616;39.786;2023-04-29T15:29:18;100126.44;;;8.33;72.47
49627;BME280;35527;54.616;39.786;2023-04-29T15:32:22;100131.78;;;8.25;73.05
49627;BME280;35527;54.616;39.786;2023-04-29T15:35:35;100129.38;;;8.18;74.09
49627;BME280;35527;54.616;39.786;2023-04-29T15:38:43;100134.81;;;8.05;74.51
49627;BME280;35527;54.616;39.786;2023-04-29T15:41:45;100130.66;;;8.00;76.50
49627;BME280;35527;54.616;39.786;2023-04-29T15:44:49;100142.06;;;7.89;75.66
49627;BME280;35527;54.616;39.786;2023-04-29T15:47:56;100143.09;;;7.81;76.82
49627;BME280;35527;54.616;39.786;2023-04-29T15:51:04;100155.22;;;7.77;77.56
49627;BME280;35527;54.616;39.786;2023-04-29T15:54:09;100136.50;;;7.69;78.49
49627;BME280;35527;54.616;39.786;2023-04-29T15:57:13;100157.78;;;7.79;78.50
49627;BME280;35527;54.616;39.786;2023-04-29T16:00:16;100161.34;;;7.72;79.04
49627;BME280;35527;54.616;39.786;2023-04-29T16:03:19;100154.75;;;7.60;79.53
49627;BME280;35527;54.616;39.786;2023-04-29T16:06:24;100159.97;;;7.55;80.26
49627;BME280;35527;54.616;39.786;2023-04-29T16:09:32;100180.56;;;7.57;81.31
49627;BME280;35527;54.616;39.786;2023-04-29T16:12:35;100173.97;;;7.43;82.45
49627;BME280;35527;54.616;39.786;2023-04-29T16:15:42;100185.28;;;7.36;82.92
49627;BME280;35527;54.616;39.786;2023-04-29T16:18:45;100148.19;;;7.02;83.69
49627;BME280;35527;54.616;39.786;2023-04-29T16:21:51;100185.59;;;7.19;85.05
49627;BME280;35527;54.616;39.786;2023-04-29T16:24:55;100187.53;;;7.08;86.95
49627;BME280;35527;54.616;39.786;2023-04-29T16:27:57;100180.69;;;7.07;87.97
49627;BME280;35527;54.616;39.786;2023-04-29T16:31:00;100183.47;;;6.96;89.07
49627;BME280;35527;54.616;39.786;2023-04-29T16:34:05;100182.63;;;6.96;90.70
49627;BME280;35527;54.616;39.786;2023-04-29T16:37:11;100194.00;;;6.83;91.09
49627;BME280;35527;54.616;39.786;2023-04-29T16:40:14;100200.09;;;6.79;92.07